Řízení letového provozu České republiky
Letiste: LKMT Aktualizace: 11.12.2019 06:30:26  UTC
 METAR LKMT 11.12. 06:30 ...
METAR LKMT 110630Z 22003KT CAVOK M06/M07 Q1021 NOSIG RMK REG QNH 1012=
 TAF LKMT 11.12. 05:00 ...
TAF LKMT 110500Z 1106/1212 22004KT 9000 NSC      TEMPO 1106/1109 3500 BR NSC      PROB30 TEMPO 1106/1108 1200 BCFG BKN004      BECMG 1109/1111 CAVOK      BECMG 1120/1122 21010KT      BECMG 1206/1209 9999 OVC018=